Time;durP1;ratioP1;P1;durP2;ratioP2;P2;SDS_P1;SDS_P2;PMS_P1;PMS_P2;Temp;Humidity;BMP_temperature;BMP_pressure;BME280_temperature;BME280_humidity;BME280_pressure;Samples;Min_cycle;Max_cycle;Signal;HPM_P1;HPM_P2
2023/07/10 00:01:02;;;;;;;10.05;7.00;;;;;;;19.52;100.00;94312.38;5049689;28;20055;-61
2023/07/10 00:03:29;;;;;;;10.15;7.10;;;;;;;19.52;100.00;94307.59;5049979;28;20429;-59
2023/07/10 00:05:57;;;;;;;10.43;6.55;;;;;;;19.47;100.00;94305.41;5037044;28;20490;-59
2023/07/10 00:08:24;;;;;;;9.83;6.93;;;;;;;19.40;100.00;94308.50;5049998;28;20350;-59
2023/07/10 00:10:52;;;;;;;9.93;6.60;;;;;;;19.39;100.00;94311.75;5049274;28;20045;-59
2023/07/10 00:13:21;;;;;;;14.95;9.40;;;;;;;19.40;100.00;94308.50;5049976;28;20503;-63
2023/07/10 00:15:50;;;;;;;13.55;8.80;;;;;;;19.40;100.00;94302.94;5049306;28;20425;-60
2023/07/10 00:18:19;;;;;;;10.35;7.13;;;;;;;19.25;100.00;94307.56;5049636;28;20129;-59
2023/07/10 00:20:47;;;;;;;15.17;8.87;;;;;;;19.23;100.00;94310.03;5048978;28;20045;-57
2023/07/10 00:23:15;;;;;;;10.40;7.28;;;;;;;19.23;100.00;94304.47;5049581;28;20033;-58
2023/07/10 00:25:43;;;;;;;10.43;7.10;;;;;;;19.05;100.00;94308.00;5035894;28;20041;-57
2023/07/10 00:28:18;;;;;;;10.00;6.90;;;;;;;19.10;100.00;94294.25;5051881;28;20047;-61
2023/07/10 00:30:48;;;;;;;11.00;6.72;;;;;;;19.13;100.00;94292.56;5048814;28;20041;-59
2023/07/10 00:33:17;;;;;;;9.83;7.10;;;;;;;19.18;100.00;94293.97;5049466;28;20041;-61
2023/07/10 00:35:45;;;;;;;11.98;7.20;;;;;;;19.00;100.00;94289.94;5028257;28;20053;-60
2023/07/10 00:38:27;;;;;;;13.27;7.10;;;;;;;18.79;100.00;94282.44;5044001;28;20058;-60
2023/07/10 00:40:56;;;;;;;11.25;7.20;;;;;;;18.77;100.00;94294.00;5029033;28;20499;-58
2023/07/10 00:43:44;;;;;;;11.88;7.53;;;;;;;18.85;100.00;94286.94;5046059;28;20041;-59
2023/07/10 00:46:31;;;;;;;16.70;11.63;;;;;;;18.99;100.00;94302.28;5048247;28;20635;-58
2023/07/10 00:49:12;;;;;;;12.27;8.35;;;;;;;19.05;100.00;94299.66;5027573;28;20060;-58
2023/07/10 00:51:45;;;;;;;11.82;7.90;;;;;;;18.99;100.00;94312.63;5048639;28;20328;-59
2023/07/10 00:54:24;;;;;;;11.77;7.20;;;;;;;18.96;100.00;94337.34;5048203;28;20824;-58
2023/07/10 00:56:53;;;;;;;10.88;7.10;;;;;;;18.98;100.00;94347.25;5048363;28;20037;-59
2023/07/10 00:59:26;;;;;;;9.77;7.00;;;;;;;19.09;100.00;94348.34;5048959;28;20040;-60
2023/07/10 01:02:11;;;;;;;10.18;7.28;;;;;;;18.90;100.00;94335.66;5048269;28;20063;-58
2023/07/10 01:04:41;;;;;;;12.55;7.40;;;;;;;18.95;100.00;94346.16;5048616;28;20045;-60
2023/07/10 01:07:12;;;;;;;10.43;7.40;;;;;;;19.13;100.00;94370.47;5047926;28;20066;-57
2023/07/10 01:09:41;;;;;;;10.68;6.93;;;;;;;19.15;100.00;94365.97;5027621;28;20106;-58
2023/07/10 01:12:08;;;;;;;11.23;7.30;;;;;;;19.11;100.00;94368.13;5035039;28;20053;-58
2023/07/10 01:14:35;;;;;;;9.60;6.93;;;;;;;19.00;100.00;94367.81;5048565;28;20044;-58
2023/07/10 01:17:08;;;;;;;11.50;7.57;;;;;;;18.95;100.00;94371.19;5047930;28;20045;-60
2023/07/10 01:19:36;;;;;;;14.30;8.27;;;;;;;18.82;100.00;94367.75;5048614;28;20045;-59
2023/07/10 01:22:05;;;;;;;12.93;7.72;;;;;;;19.02;100.00;94370.91;5044817;28;20052;-58
2023/07/10 01:24:34;;;;;;;10.70;6.90;;;;;;;19.14;100.00;94361.66;5039324;28;20508;-60
2023/07/10 01:27:01;;;;;;;12.75;6.80;;;;;;;19.21;100.00;94355.00;5048030;28;20040;-61
2023/07/10 01:29:36;;;;;;;13.88;7.80;;;;;;;19.20;100.00;94353.47;5048351;28;20044;-60
2023/07/10 01:32:05;;;;;;;11.75;7.15;;;;;;;19.26;100.00;94346.06;5026801;28;20163;-58
2023/07/10 01:34:39;;;;;;;11.65;7.40;;;;;;;19.04;100.00;94342.63;5039854;28;20033;-58
2023/07/10 01:37:07;;;;;;;13.70;7.77;;;;;;;18.91;100.00;94337.97;5047508;28;20795;-58
2023/07/10 01:39:50;;;;;;;9.88;7.18;;;;;;;19.02;100.00;94353.44;5028549;28;20110;-60
2023/07/10 01:42:17;;;;;;;10.50;7.15;;;;;;;19.10;100.00;94349.91;5047258;28;20421;-58
2023/07/10 01:44:46;;;;;;;10.35;7.30;;;;;;;19.04;100.00;94343.41;5047894;28;20058;-58
2023/07/10 01:47:14;;;;;;;12.52;7.60;;;;;;;18.88;100.00;94335.34;5047926;28;20055;-58
2023/07/10 01:49:43;;;;;;;12.20;7.40;;;;;;;18.89;100.00;94342.44;5047534;28;20090;-58
2023/07/10 01:52:12;;;;;;;12.18;7.93;;;;;;;19.00;100.00;94340.00;5048309;28;20402;-58
2023/07/10 01:54:39;;;;;;;13.60;7.93;;;;;;;19.02;100.00;94340.31;5048956;28;20037;-58
2023/07/10 01:57:07;;;;;;;11.30;7.75;;;;;;;18.84;100.00;94332.69;5054793;28;20040;-58
2023/07/10 01:59:34;;;;;;;10.63;7.82;;;;;;;18.85;100.00;94325.88;5054356;28;20076;-59
2023/07/10 02:02:01;;;;;;;11.70;7.93;;;;;;;18.87;100.00;94315.06;5054532;28;20045;-58
2023/07/10 02:04:28;;;;;;;13.02;7.95;;;;;;;18.84;100.00;94318.78;5024996;28;20041;-58
2023/07/10 02:06:55;;;;;;;11.43;7.50;;;;;;;18.94;100.00;94317.56;5053216;28;20055;-60
2023/07/10 02:09:26;;;;;;;12.93;7.43;;;;;;;18.97;100.00;94313.09;5054787;28;20071;-58
2023/07/10 02:11:53;;;;;;;13.27;8.02;;;;;;;18.86;100.00;94312.78;5054103;28;20047;-59
2023/07/10 02:14:21;;;;;;;14.93;7.67;;;;;;;18.62;100.00;94326.41;5054952;28;20045;-60
2023/07/10 02:16:48;;;;;;;10.55;7.45;;;;;;;18.59;100.00;94328.09;5054000;28;20082;-58
2023/07/10 02:19:15;;;;;;;11.70;7.72;;;;;;;18.53;100.00;94327.13;5054547;28;20056;-58
2023/07/10 02:21:42;;;;;;;12.68;7.78;;;;;;;18.62;100.00;94316.06;5053754;28;20478;-58
2023/07/10 02:24:08;;;;;;;11.15;7.60;;;;;;;18.72;100.00;94312.06;5054559;28;20135;-61
2023/07/10 02:26:35;;;;;;;12.67;8.00;;;;;;;18.84;100.00;94304.13;5054638;28;20049;-58
2023/07/10 02:29:02;;;;;;;12.48;7.68;;;;;;;18.83;100.00;94308.13;5054224;28;20047;-61
2023/07/10 02:31:30;;;;;;;11.43;7.68;;;;;;;18.86;100.00;94310.00;5054622;28;20456;-58
2023/07/10 02:33:57;;;;;;;12.60;7.72;;;;;;;18.84;100.00;94313.22;5053739;28;20041;-58
2023/07/10 02:36:27;;;;;;;11.10;7.40;;;;;;;18.64;100.00;94321.19;5054348;28;20055;-58
2023/07/10 02:38:54;;;;;;;11.57;8.03;;;;;;;18.47;100.00;94329.75;5041201;28;20037;-58
2023/07/10 02:41:21;;;;;;;11.85;7.78;;;;;;;18.62;100.00;94341.09;5034546;28;20045;-58
2023/07/10 02:43:48;;;;;;;13.18;7.30;;;;;;;18.72;100.00;94341.91;5052399;28;20036;-59
2023/07/10 02:46:15;;;;;;;14.02;8.23;;;;;;;18.75;100.00;94335.41;5054236;28;20404;-59
2023/07/10 02:48:42;;;;;;;12.45;8.00;;;;;;;18.69;100.00;94351.13;5053719;28;20154;-58
2023/07/10 02:51:09;;;;;;;13.03;8.07;;;;;;;18.68;100.00;94347.59;5054402;28;20037;-59
2023/07/10 02:53:36;;;;;;;11.43;7.97;;;;;;;18.83;100.00;94349.81;5053996;28;20051;-57
2023/07/10 02:56:02;;;;;;;11.32;7.78;;;;;;;18.90;100.00;94347.53;5053727;28;20033;-58
2023/07/10 02:58:30;;;;;;;10.48;7.80;;;;;;;18.83;100.00;94353.38;5054109;28;20211;-59
2023/07/10 03:00:58;;;;;;;11.52;8.23;;;;;;;18.73;100.00;94369.25;5065364;28;20050;-59
2023/07/10 03:03:25;;;;;;;12.57;8.43;;;;;;;18.38;100.00;94379.72;5061387;28;20037;-59
2023/07/10 03:05:54;;;;;;;13.82;8.70;;;;;;;18.32;100.00;94385.09;5053130;28;20049;-58
2023/07/10 03:08:21;;;;;;;12.32;8.00;;;;;;;18.51;100.00;94383.19;5050713;28;20043;-60
2023/07/10 03:10:48;;;;;;;11.75;8.82;;;;;;;17.85;100.00;94379.69;5050619;28;20055;-58
2023/07/10 03:13:15;;;;;;;13.43;8.20;;;;;;;18.39;100.00;94369.38;5050989;28;20360;-60
2023/07/10 03:15:42;;;;;;;13.10;8.03;;;;;;;18.69;100.00;94374.16;5050242;28;20053;-58
2023/07/10 03:18:08;;;;;;;12.13;7.90;;;;;;;18.76;100.00;94378.66;5050516;28;20033;-58
2023/07/10 03:20:39;;;;;;;12.63;7.80;;;;;;;18.79;100.00;94391.66;5050775;28;20053;-58
2023/07/10 03:23:06;;;;;;;13.35;8.45;;;;;;;18.48;100.00;94394.44;5049924;28;20040;-58
2023/07/10 03:25:33;;;;;;;16.02;8.18;;;;;;;18.51;100.00;94393.53;5029565;28;20444;-60
2023/07/10 03:28:00;;;;;;;13.93;7.80;;;;;;;18.71;100.00;94382.84;5050125;28;20045;-59
2023/07/10 03:30:27;;;;;;;11.50;7.85;;;;;;;18.70;100.00;94391.63;5050707;28;20071;-59
2023/07/10 03:32:53;;;;;;;11.55;8.02;;;;;;;18.77;100.00;94396.88;5050097;28;20456;-60
2023/07/10 03:35:20;;;;;;;12.27;8.10;;;;;;;18.76;100.00;94389.78;5050639;28;20490;-57
2023/07/10 03:37:47;;;;;;;11.82;8.05;;;;;;;18.76;100.00;94379.44;5036439;28;20045;-58
2023/07/10 03:40:14;;;;;;;17.77;8.23;;;;;;;18.75;100.00;94377.09;5050301;28;20398;-58
2023/07/10 03:42:40;;;;;;;11.70;8.20;;;;;;;18.66;100.00;94391.00;5049697;28;20045;-59
2023/07/10 03:45:08;;;;;;;11.48;7.88;;;;;;;18.67;100.00;94398.88;5050402;28;20037;-58
2023/07/10 03:47:34;;;;;;;11.88;7.60;;;;;;;18.77;100.00;94394.09;5050038;28;20037;-58
2023/07/10 03:50:01;;;;;;;11.90;7.97;;;;;;;18.77;100.00;94397.69;5049792;28;20045;-57
2023/07/10 03:52:28;;;;;;;11.53;7.50;;;;;;;19.00;100.00;94408.75;5050229;28;20044;-60
2023/07/10 03:54:55;;;;;;;12.55;7.50;;;;;;;19.10;100.00;94407.56;5030844;28;20041;-59
2023/07/10 03:57:21;;;;;;;10.27;7.75;;;;;;;19.20;100.00;94391.66;5050349;28;20502;-58
2023/07/10 03:59:48;;;;;;;11.23;7.90;;;;;;;18.71;100.00;94382.84;5049332;28;20059;-60
2023/07/10 04:02:15;;;;;;;10.77;8.27;;;;;;;18.52;100.00;94378.41;5049928;28;20041;-57
2023/07/10 04:04:41;;;;;;;11.17;8.13;;;;;;;18.81;100.00;94394.75;5031771;28;20041;-59
2023/07/10 04:07:08;;;;;;;11.73;8.00;;;;;;;18.75;100.00;94404.91;5028610;28;20042;-58
2023/07/10 04:09:35;;;;;;;12.68;7.60;;;;;;;18.89;100.00;94393.25;5043364;28;20049;-61
2023/07/10 04:12:02;;;;;;;9.80;7.18;;;;;;;19.08;100.00;94388.53;5034597;28;20063;-60
2023/07/10 04:14:28;;;;;;;13.23;7.72;;;;;;;18.84;100.00;94407.00;5049836;28;20041;-57
2023/07/10 04:16:55;;;;;;;12.73;7.80;;;;;;;18.83;100.00;94413.78;5049020;28;20071;-58
2023/07/10 04:19:22;;;;;;;11.80;8.00;;;;;;;18.98;100.00;94437.03;5027387;28;20068;-58
2023/07/10 04:21:49;;;;;;;11.45;8.15;;;;;;;19.11;100.00;94443.25;5049898;28;20045;-58
2023/07/10 04:24:16;;;;;;;12.48;7.97;;;;;;;19.02;100.00;94440.44;5055743;28;20041;-58
2023/07/10 04:26:43;;;;;;;13.60;7.93;;;;;;;19.17;100.00;94423.94;5048873;28;20053;-59
2023/07/10 04:29:11;;;;;;;19.23;8.80;;;;;;;19.17;100.00;94407.25;5047762;28;20055;-57
2023/07/10 04:31:38;;;;;;;14.70;8.25;;;;;;;19.21;100.00;94418.25;5032599;28;20045;-58
2023/07/10 04:34:05;;;;;;;13.10;7.72;;;;;;;19.34;100.00;94422.44;5002892;28;20041;-60
2023/07/10 04:36:31;;;;;;;12.30;7.78;;;;;;;19.41;100.00;94421.38;5023174;28;20052;-58
2023/07/10 04:38:58;;;;;;;26.15;17.80;;;;;;;19.37;100.00;94423.53;5027656;28;20443;-58
2023/07/10 04:41:25;;;;;;;15.03;8.47;;;;;;;19.44;100.00;94420.47;5046373;28;20060;-61
2023/07/10 04:43:51;;;;;;;14.90;8.32;;;;;;;19.35;100.00;94412.84;5048684;28;20056;-58
2023/07/10 04:46:19;;;;;;;11.65;7.30;;;;;;;19.55;100.00;94420.00;5048665;28;20400;-57
2023/07/10 04:48:46;;;;;;;12.77;7.43;;;;;;;19.59;100.00;94423.41;5048325;28;20080;-58
2023/07/10 04:51:16;;;;;;;12.57;7.93;;;;;;;19.69;100.00;94435.34;5049018;28;20049;-58
2023/07/10 04:53:44;;;;;;;12.70;8.43;;;;;;;19.63;100.00;94451.88;5048514;28;20130;-60
2023/07/10 04:56:12;;;;;;;15.18;7.57;;;;;;;19.71;100.00;94446.81;5048844;28;20045;-60
2023/07/10 04:58:56;;;;;;;12.25;7.97;;;;;;;19.72;100.00;94440.03;5048988;28;20338;-59
2023/07/10 05:01:26;;;;;;;11.85;8.15;;;;;;;19.79;100.00;94427.81;5047973;28;20661;-61
2023/07/10 05:03:53;;;;;;;15.43;8.35;;;;;;;19.66;100.00;94428.69;5048661;28;20053;-58
2023/07/10 05:06:20;;;;;;;11.93;7.77;;;;;;;19.78;100.00;94431.81;5059310;28;20713;-60
2023/07/10 05:08:48;;;;;;;14.82;8.38;;;;;;;19.71;100.00;94461.50;5048357;28;20421;-62
2023/07/10 05:11:15;;;;;;;12.57;8.10;;;;;;;19.72;100.00;94479.78;5048729;28;20048;-58
2023/07/10 05:13:42;;;;;;;12.82;7.78;;;;;;;19.81;100.00;94484.59;5043140;28;20042;-58
2023/07/10 05:16:09;;;;;;;12.07;8.05;;;;;;;19.90;100.00;94486.59;5040951;28;20596;-60
2023/07/10 05:18:36;;;;;;;16.17;8.00;;;;;;;19.96;100.00;94498.69;5048406;28;20410;-58
2023/07/10 05:21:03;;;;;;;13.07;7.65;;;;;;;20.10;100.00;94525.94;5047710;28;20033;-61
2023/07/10 05:23:30;;;;;;;14.13;8.07;;;;;;;20.10;100.00;94547.44;5048432;28;20288;-61
2023/07/10 05:26:10;;;;;;;10.55;7.63;;;;;;;20.17;100.00;94563.13;5047503;28;20045;-58
2023/07/10 05:28:38;;;;;;;12.30;7.93;;;;;;;20.14;100.00;94559.22;5055554;28;20094;-59
2023/07/10 05:31:06;;;;;;;15.13;8.80;;;;;;;19.78;100.00;94546.78;5047554;28;20048;-58
2023/07/10 05:33:34;;;;;;;15.45;8.07;;;;;;;20.14;100.00;94548.06;5044560;28;20072;-60
2023/07/10 05:36:03;;;;;;;13.23;8.02;;;;;;;20.28;100.00;94475.03;5038885;28;20044;-61
2023/07/10 05:38:33;;;;;;;14.85;7.60;;;;;;;20.23;100.00;94452.56;5048244;28;20413;-58
2023/07/10 05:41:00;;;;;;;15.35;7.90;;;;;;;20.28;100.00;94443.56;5047545;28;20041;-59
2023/07/10 05:43:31;;;;;;;16.67;7.97;;;;;;;20.20;100.00;94422.84;5048035;28;20044;-59
2023/07/10 05:45:58;;;;;;;15.45;8.38;;;;;;;20.13;100.00;94441.41;5047356;28;20524;-59
2023/07/10 05:48:26;;;;;;;15.43;9.13;;;;;;;19.80;100.00;94454.41;5047945;28;20045;-59
2023/07/10 05:50:53;;;;;;;15.55;9.30;;;;;;;19.69;100.00;94463.94;5043907;28;20045;-58
2023/07/10 05:53:20;;;;;;;15.68;9.40;;;;;;;19.27;100.00;94485.97;5039053;28;20037;-61
2023/07/10 05:55:50;;;;;;;16.30;9.30;;;;;;;19.05;100.00;94502.72;5047539;28;20043;-58
2023/07/10 05:58:17;;;;;;;14.82;9.60;;;;;;;19.21;100.00;94496.16;5048150;28;20424;-58
2023/07/10 06:00:48;;;;;;;13.43;8.55;;;;;;;19.44;100.00;94514.34;5042387;28;20505;-58
2023/07/10 06:03:16;;;;;;;16.60;9.10;;;;;;;19.52;100.00;94519.16;5029303;28;20041;-61
2023/07/10 06:05:52;;;;;;;14.75;8.68;;;;;;;19.55;100.00;94531.38;5044398;28;20436;-59
2023/07/10 06:08:19;;;;;;;15.13;9.27;;;;;;;19.53;100.00;94539.41;5047114;28;20049;-58
2023/07/10 06:10:46;;;;;;;13.93;8.48;;;;;;;19.49;100.00;94563.81;5047560;28;20053;-58
2023/07/10 06:13:13;;;;;;;10.95;8.32;;;;;;;19.52;100.00;94551.78;5027898;28;20056;-62
2023/07/10 06:15:45;;;;;;;14.20;8.57;;;;;;;19.60;100.00;94541.13;5054096;28;20335;-59
2023/07/10 06:18:13;;;;;;;14.20;8.85;;;;;;;19.68;100.00;94542.38;5055360;28;20037;-58
2023/07/10 06:20:40;;;;;;;13.53;7.70;;;;;;;19.58;100.00;94540.81;5034581;28;20040;-58
2023/07/10 06:23:07;;;;;;;15.40;7.90;;;;;;;19.70;100.00;94537.16;5027886;28;20475;-58
2023/07/10 06:25:33;;;;;;;11.27;7.32;;;;;;;19.74;100.00;94535.78;5027837;28;20046;-61
2023/07/10 06:28:00;;;;;;;10.90;7.38;;;;;;;19.73;100.00;94527.88;5018295;28;20051;-60
2023/07/10 06:30:27;;;;;;;12.85;7.90;;;;;;;19.64;100.00;94505.56;5039453;28;20045;-61
2023/07/10 06:32:54;;;;;;;12.43;7.33;;;;;;;19.63;100.00;94498.44;5027365;28;20599;-58
2023/07/10 06:35:21;;;;;;;14.40;8.23;;;;;;;19.61;100.00;94514.84;5017204;28;20067;-59
2023/07/10 06:37:47;;;;;;;14.48;8.75;;;;;;;19.44;100.00;94523.47;5026678;28;20033;-61
2023/07/10 06:40:15;;;;;;;16.10;8.57;;;;;;;19.47;100.00;94542.00;5047419;28;20692;-61
2023/07/10 06:42:42;;;;;;;12.20;9.15;;;;;;;19.53;100.00;94536.63;5057552;28;20048;-59
2023/07/10 06:45:10;;;;;;;15.13;9.37;;;;;;;19.63;100.00;94535.41;5051459;28;20051;-59
2023/07/10 06:47:42;;;;;;;12.65;8.88;;;;;;;19.80;100.00;94535.97;5053561;28;20102;-62
2023/07/10 06:50:12;;;;;;;13.68;9.00;;;;;;;19.92;100.00;94535.06;5050465;28;20460;-59
2023/07/10 06:52:41;;;;;;;13.13;8.90;;;;;;;20.04;100.00;94546.50;5051443;28;20041;-62
2023/07/10 06:55:11;;;;;;;11.48;8.50;;;;;;;20.11;100.00;94547.00;5050573;28;20409;-59
2023/07/10 06:57:38;;;;;;;11.73;8.03;;;;;;;20.20;100.00;94548.25;5051682;28;20043;-59
2023/07/10 07:00:11;;;;;;;9.75;7.75;;;;;;;20.16;100.00;94542.81;5045460;28;20635;-60
2023/07/10 07:02:38;;;;;;;11.68;8.07;;;;;;;20.46;100.00;94554.28;5040973;28;20049;-60
2023/07/10 07:05:07;;;;;;;12.05;8.20;;;;;;;20.40;100.00;94556.16;5037482;28;20063;-59
2023/07/10 07:07:36;;;;;;;11.77;8.43;;;;;;;20.18;100.00;94562.63;5051489;28;20059;-59
2023/07/10 07:10:05;;;;;;;12.93;9.23;;;;;;;20.32;100.00;94573.19;5050808;28;20391;-59
2023/07/10 07:12:32;;;;;;;11.98;8.63;;;;;;;20.91;100.00;94572.28;5051341;28;20074;-59
2023/07/10 07:14:59;;;;;;;14.60;8.55;;;;;;;22.33;100.00;94555.59;5050619;28;20045;-59
2023/07/10 07:17:26;;;;;;;12.77;7.90;;;;;;;22.33;100.00;94561.19;5051381;28;20063;-59
2023/07/10 07:19:52;;;;;;;11.55;8.30;;;;;;;21.64;100.00;94562.94;5050358;28;20064;-62
2023/07/10 07:22:19;;;;;;;10.23;7.90;;;;;;;21.72;100.00;94577.34;5051184;28;20035;-60
2023/07/10 07:24:46;;;;;;;12.10;8.00;;;;;;;22.05;100.00;94580.09;5050795;28;20045;-59
2023/07/10 07:27:12;;;;;;;11.18;7.85;;;;;;;21.95;100.00;94564.63;5030039;28;20064;-59
2023/07/10 07:29:39;;;;;;;11.98;8.68;;;;;;;22.42;100.00;94573.53;5043249;28;20059;-60
2023/07/10 07:32:08;;;;;;;12.18;7.80;;;;;;;22.99;100.00;94581.00;5050096;28;20807;-62
2023/07/10 07:34:35;;;;;;;16.40;8.50;;;;;;;25.28;100.00;94570.75;5051017;28;20409;-59
2023/07/10 07:37:04;;;;;;;10.20;7.60;;;;;;;27.82;100.00;94560.63;5050264;28;20041;-62
2023/07/10 07:39:31;;;;;;;10.90;7.50;;;;;;;29.13;92.39;94549.75;5050408;28;20119;-61
2023/07/10 07:42:00;;;;;;;10.73;7.50;;;;;;;27.24;100.00;94555.47;5049623;28;20045;-62
2023/07/10 07:44:27;;;;;;;9.32;6.90;;;;;;;26.03;100.00;94553.19;5050949;28;20398;-62
2023/07/10 07:46:55;;;;;;;8.73;6.93;;;;;;;26.72;100.00;94538.94;5049580;28;20064;-61
2023/07/10 07:49:23;;;;;;;11.15;6.93;;;;;;;25.69;100.00;94536.81;5029546;28;20552;-60
2023/07/10 07:51:51;;;;;;;16.27;8.02;;;;;;;23.99;100.00;94541.91;5044179;28;20253;-60
2023/07/10 07:54:19;;;;;;;11.02;8.18;;;;;;;23.24;100.00;94538.47;5039160;28;20071;-61
2023/07/10 07:56:46;;;;;;;13.43;7.93;;;;;;;25.83;100.00;94532.31;5049789;28;20041;-61
2023/07/10 07:59:13;;;;;;;9.93;6.90;;;;;;;29.57;90.08;94526.03;5049468;28;20041;-61
2023/07/10 08:01:40;;;;;;;10.85;7.30;;;;;;;30.74;84.16;94541.63;5029634;28;20048;-61
2023/07/10 08:04:07;;;;;;;10.48;7.00;;;;;;;29.42;79.55;94542.63;5038755;28;20047;-64
2023/07/10 08:06:34;;;;;;;11.20;6.70;;;;;;;28.95;88.50;94540.56;5050479;28;20048;-61
2023/07/10 08:09:03;;;;;;;8.73;6.35;;;;;;;30.80;77.48;94539.47;5050105;28;20044;-63
2023/07/10 08:11:29;;;;;;;9.17;6.00;;;;;;;30.56;75.54;94543.88;5050133;28;20045;-62
2023/07/10 08:13:56;;;;;;;8.75;5.65;;;;;;;33.02;65.37;94538.84;5049793;28;20045;-61
2023/07/10 08:16:24;;;;;;;7.55;5.40;;;;;;;33.46;60.83;94527.06;5048821;28;20067;-58
2023/07/10 08:18:50;;;;;;;6.90;5.47;;;;;;;32.62;61.38;94527.56;5049378;28;20497;-58
2023/07/10 08:21:18;;;;;;;8.10;5.57;;;;;;;32.54;64.88;94527.44;5049751;28;20114;-59
2023/07/10 08:23:45;;;;;;;8.53;5.37;;;;;;;30.59;70.23;94531.50;5049241;28;20043;-58
2023/07/10 08:26:13;;;;;;;8.02;5.30;;;;;;;31.43;69.65;94540.94;5040021;28;20047;-61
2023/07/10 08:28:40;;;;;;;8.82;5.53;;;;;;;33.27;62.68;94539.38;5046679;28;20412;-62
2023/07/10 08:31:07;;;;;;;7.88;5.00;;;;;;;31.09;64.81;94543.50;5048941;28;20267;-63
2023/07/10 08:33:33;;;;;;;7.15;5.22;;;;;;;30.68;65.49;94544.50;5049762;28;20049;-60
2023/07/10 08:36:05;;;;;;;9.17;5.07;;;;;;;31.55;61.53;94546.44;5049425;28;20392;-60
2023/07/10 08:38:34;;;;;;;7.70;5.13;;;;;;;31.38;62.05;94541.03;5049861;28;20041;-61
2023/07/10 08:41:18;;;;;;;9.63;5.40;;;;;;;31.88;58.00;94541.56;5049038;28;20040;-61
2023/07/10 08:43:46;;;;;;;7.43;5.10;;;;;;;32.88;56.58;94537.34;5049110;28;20049;-60
2023/07/10 08:46:13;;;;;;;7.30;4.85;;;;;;;33.49;53.46;94531.66;5049672;28;20037;-61
2023/07/10 08:48:58;;;;;;;7.30;5.10;;;;;;;32.38;55.69;94537.06;5048968;28;20067;-61
2023/07/10 08:51:37;;;;;;;7.97;5.30;;;;;;;33.14;54.52;94525.97;5049576;28;20075;-63
2023/07/10 08:54:13;;;;;;;10.27;5.50;;;;;;;33.49;49.73;94526.72;5048821;28;20068;-61
2023/07/10 08:56:54;;;;;;;8.15;5.25;;;;;;;35.70;45.59;94515.72;5049121;28;20088;-61
2023/07/10 08:59:27;;;;;;;7.65;5.18;;;;;;;34.48;49.05;94517.50;5028565;28;20058;-60
2023/07/10 09:01:56;;;;;;;7.07;5.00;;;;;;;34.86;47.12;94522.66;5029269;28;20156;-61
2023/07/10 09:04:25;;;;;;;7.65;4.90;;;;;;;37.28;40.44;94516.63;5036143;28;20098;-62
2023/07/10 09:06:56;;;;;;;6.88;4.97;;;;;;;35.55;43.15;94519.28;5048285;28;20045;-61
2023/07/10 09:09:40;;;;;;;7.53;5.50;;;;;;;32.03;53.20;94534.06;5048198;28;20423;-62
2023/07/10 09:12:17;;;;;;;9.73;4.97;;;;;;;34.14;52.85;94535.50;5047525;28;20123;-61
2023/07/10 09:15:01;;;;;;;7.37;5.30;;;;;;;36.55;43.79;94537.25;5048038;28;20044;-62
2023/07/10 09:17:36;;;;;;;7.63;5.18;;;;;;;34.96;46.17;94532.22;5034971;28;20421;-61
2023/07/10 09:20:08;;;;;;;7.22;4.82;;;;;;;37.53;39.68;94522.41;5048165;28;20104;-61
2023/07/10 09:22:37;;;;;;;6.40;4.38;;;;;;;37.98;37.27;94525.56;5048354;28;20045;-61
2023/07/10 09:25:11;;;;;;;7.97;4.88;;;;;;;35.09;41.83;94530.53;5048317;28;20041;-64
2023/07/10 09:27:42;;;;;;;6.97;4.80;;;;;;;36.21;40.36;94534.06;5030597;28;20071;-61
2023/07/10 09:30:52;;;;;;;6.93;4.78;;;;;;;36.67;40.08;94534.78;5047546;28;20589;-61
2023/07/10 09:33:20;;;;;;;7.75;4.90;;;;;;;35.99;41.59;94539.16;5038993;28;20115;-62
2023/07/10 09:35:47;;;;;;;7.40;4.90;;;;;;;35.92;40.18;94537.84;5013992;28;20053;-64
2023/07/10 09:38:18;;;;;;;6.80;4.80;;;;;;;34.96;42.70;94540.78;5048509;28;20044;-62
2023/07/10 09:40:50;;;;;;;7.03;4.90;;;;;;;35.72;41.31;94536.69;5047677;28;20059;-61
2023/07/10 09:43:20;;;;;;;8.02;5.18;;;;;;;34.35;43.38;94538.31;5035663;28;20393;-60
2023/07/10 09:45:51;;;;;;;7.47;5.30;;;;;;;33.11;47.11;94544.13;5047452;28;20504;-59
2023/07/10 09:48:35;;;;;;;7.38;4.95;;;;;;;33.88;46.44;94541.34;5047809;28;20504;-60
2023/07/10 09:51:05;;;;;;;8.88;5.00;;;;;;;34.44;44.18;94528.50;5047527;28;20414;-60
2023/07/10 09:53:36;;;;;;;7.00;5.03;;;;;;;34.85;43.25;94529.69;5047926;28;20072;-60
2023/07/10 09:56:03;;;;;;;7.57;5.00;;;;;;;34.81;44.52;94538.63;5047202;28;20110;-60
2023/07/10 09:58:30;;;;;;;6.25;4.90;;;;;;;35.15;43.27;94534.78;5047737;28;20036;-61
2023/07/10 10:01:04;;;;;;;7.93;4.88;;;;;;;35.81;42.10;94532.50;5034102;28;20041;-60
2023/07/10 10:03:38;;;;;;;6.95;4.68;;;;;;;36.44;39.37;94534.78;5030417;28;20049;-61
2023/07/10 10:06:25;;;;;;;7.10;4.83;;;;;;;35.67;39.23;94525.44;5029881;28;20045;-63
2023/07/10 10:08:52;;;;;;;6.80;4.60;;;;;;;36.82;37.55;94531.09;5047837;28;20044;-62
2023/07/10 10:11:41;;;;;;;7.03;4.70;;;;;;;37.03;37.48;94527.19;5048126;28;20045;-61
2023/07/10 10:14:15;;;;;;;7.25;4.90;;;;;;;36.30;38.45;94519.97;5035458;28;20663;-61
2023/07/10 10:16:49;;;;;;;7.03;4.80;;;;;;;37.13;37.83;94520.34;5050307;28;20106;-60
2023/07/10 10:19:34;;;;;;;6.63;4.80;;;;;;;37.17;36.70;94520.69;5052190;28;20165;-62
2023/07/10 10:22:10;;;;;;;7.43;4.60;;;;;;;37.32;34.83;94524.81;5051619;28;20041;-61
2023/07/10 10:24:38;;;;;;;6.57;4.55;;;;;;;37.60;35.13;94520.13;5052316;28;20072;-62
2023/07/10 10:27:23;;;;;;;6.40;4.35;;;;;;;37.87;35.04;94512.50;5051687;28;20040;-60
2023/07/10 10:30:12;;;;;;;6.60;5.03;;;;;;;35.40;40.00;94520.03;5051580;28;20155;-60
2023/07/10 10:32:53;;;;;;;7.07;4.80;;;;;;;36.62;37.23;94512.06;5038471;28;20061;-60
2023/07/10 10:35:30;;;;;;;7.47;5.05;;;;;;;36.83;36.46;94512.63;5051239;28;21412;-61
2023/07/10 10:38:12;;;;;;;6.20;4.90;;;;;;;36.82;37.08;94513.19;5051235;28;20041;-61
2023/07/10 10:40:53;;;;;;;9.23;5.10;;;;;;;35.14;39.31;94504.72;5051329;28;20045;-62
2023/07/10 10:43:32;;;;;;;8.60;5.13;;;;;;;36.28;37.35;94508.34;5050787;28;20202;-61
2023/07/10 10:46:19;;;;;;;6.33;4.87;;;;;;;36.68;35.46;94501.22;5051186;28;20063;-61
2023/07/10 10:49:01;;;;;;;7.25;4.90;;;;;;;36.44;36.24;94509.03;5051135;28;20084;-61
2023/07/10 10:51:35;;;;;;;8.20;4.95;;;;;;;36.73;36.17;94498.16;5051849;28;20067;-60
2023/07/10 10:54:12;;;;;;;7.60;5.28;;;;;;;34.64;40.74;94487.00;5051286;28;20051;-62
2023/07/10 10:57:24;;;;;;;7.28;5.00;;;;;;;34.46;42.14;94485.94;5051048;28;20048;-60
2023/07/10 11:00:17;;;;;;;7.90;5.20;;;;;;;33.89;43.51;94492.38;5051049;28;20059;-60
2023/07/10 11:03:04;;;;;;;7.97;5.60;;;;;;;32.69;43.12;94489.19;5050783;28;20045;-63
2023/07/10 11:05:38;;;;;;;7.13;4.90;;;;;;;32.84;37.45;94492.22;5051401;28;20048;-60
2023/07/10 11:08:27;;;;;;;7.95;5.53;;;;;;;32.66;40.39;94488.22;5050438;28;20037;-63
2023/07/10 11:10:55;;;;;;;9.27;5.60;;;;;;;32.61;41.37;94483.41;5050753;28;20041;-64
2023/07/10 11:13:31;;;;;;;7.73;5.50;;;;;;;32.87;40.79;94491.13;5051385;28;20036;-63
2023/07/10 11:15:59;;;;;;;7.13;5.65;;;;;;;32.64;41.64;94494.44;5050942;28;20413;-59
2023/07/10 11:18:26;;;;;;;6.75;5.18;;;;;;;32.44;41.19;94486.56;5051131;28;20045;-62
2023/07/10 11:20:54;;;;;;;7.93;5.10;;;;;;;32.44;39.67;94486.56;5050532;28;20059;-59
2023/07/10 11:23:50;;;;;;;8.20;5.60;;;;;;;31.38;41.51;94487.13;5050882;28;20037;-59
2023/07/10 11:26:28;;;;;;;6.13;5.23;;;;;;;31.69;43.65;94484.84;5049075;28;20045;-60
2023/07/10 11:29:00;;;;;;;7.32;5.60;;;;;;;32.13;44.35;94480.44;5050086;28;20431;-60
2023/07/10 11:31:40;;;;;;;7.25;5.60;;;;;;;31.98;45.35;94480.22;5051080;28;20106;-60
2023/07/10 11:34:07;;;;;;;8.20;5.95;;;;;;;31.83;44.12;94475.03;5050005;28;20405;-60
2023/07/10 11:36:34;;;;;;;10.80;6.40;;;;;;;31.12;46.57;94477.22;5050821;28;20045;-60